My Meet Scores
Caelyn Walsh, Phenom Gymnastics - MyMeetScores.com
Top100 | Top Teams | Upcoming Meets | Completed Meets | Latest | Add Scores | Help| Support | Bookmark and Share

Caelyn Walsh, Phenom Gymnastics
Personal Bests
LevelVault BarsBeamFloorAA
39.5759.450 9.3259.50037.275
49.2759.800 9.7509.52537.975
XB9.2509.475 9.2509.25037.225
Scores on America's Top 100as of 02.26.2020
Year Level Vault Bars Beam Floor AA
2020 49.800

Click here to view our exclusive Top 100 Collection
Meet Scores
Date Meet Team Session Level Division Vault Bars Beam Floor AA
2020-02-21 Kinetic Classic Phenom Gymnastics 07 4 Younger 9.275 5T 9.800 1T 9.400 8 9.500 5 37.975 3
2020-02-14 Big Classic Phenom Gymnastics 6B 4 Child A 9.200 16 9.550 5 8.750 48T 9.500 4T 37.000 10
2020-01-17 2020 Bravo Classic Phenom Gymnastics 10B 4 Child 8.350 11 9.650 1 9.750 1 9.425 2 37.175 1
2019-12-20 Aspire Classic - 2019 Phenom Gymnastics 8A 4 Younger 9.125 1 9.075 2 9.000 15 9.525 1 36.725 2
2019-12-13 MEGA Magic Classic 2019 Phenom Gymnastics 3B 4 Jr A 8.700 8T 9.350 3T 9.275 1 9.500 2 36.825 2
2019-03-22 Illinois Gymnastics State Championships Phenom Gymnastics 8 4 Ch A 8.950 9T 9.100 14 9.575 5 9.475 5T 37.100 9
2019-03-01 NGCD Academy's 2019 Flip'r Invitational Phenom Gymnastics 10 4 Child A 8.700 10 8.725 10 8.900 10T 9.100 9 35.425 10
2019-02-15 Big ClassicBIG CLASSIC Phenom Gymnastics 2A 4 Child A 8.225 12T 7.000 14 8.575 10 9.050 7 32.850 12
2019-01-25 King Arthur Invitational Phenom Gymnastics 1 4 Jr A 8.225 7T 8.775 5 8.450 11 9.100 4 34.550 5
2019-01-18 2019 Bravo Classic Phenom Gymnastics 4B 4 Child 9.025 8 9.200 7 9.150 5 8.575 18 35.950 8
2018-12-14 2018 Aspire Classic Phenom Gymnastics 5A 4 Younger 8.500 19T 8.225 24 8.625 22 9.175 8 34.525 24
2018-12-07 2018 MEGA Magic Classic Phenom Gymnastics A2 4 Jr A 8.500 13T 8.000 17 8.800 9T 8.950 9 34.250 13
2018-05-03 Illinois USA Gymnastics Level 3 State Championships Phenom Gymnastics 8 3 Ch A 9.575 5T 9.450 2T 8.875 13T 9.375 9T 37.275 5
2018-01-19 2018 Bravo Classic Naperville Gymnastics Club 8B 3 Child 9.350 11T 8.800 14 9.325 3T 9.500 2T 36.975 7
2017-12-15 2017 Aspire Classic Naperville Gymnastics Club 9B 3 Younger 9.325 4 9.450 3 9.175 2 9.300 3T 37.250 3
2017-11-17 SCGA Classic Naperville Gymnastics Club 1 3 Child 9.300 2 8.950 2 8.450 6 8.725 6 35.425 3
2017-03-10 Lucky Invitational Naperville Gymnastics Club B04 XB Jr A 9.250 3T 9.475 7T 9.250 4T 9.250 3T 37.225 3
2017-02-24 Kinetic Classic Naperville Gymnastics Club 7 XB All 9.250 2 9.275 4 9.250 1 9.100 1T 36.875 1
2017-02-17 Midwest Open Naperville Gymnastics Club 2A XB JR A 9.050 2 9.300 2 9.200 3 9.025 4 36.575 2
2017-02-03 2017 Gateway Challenge Naperville Gymnastics Club 8A XB 6 & under 9.150 3T 9.425 1 8.650 6 9.150 2 36.375 2
2017-01-20 2017 Bravo Classic Naperville Gymnastics Club 09B XB 6-8yrs 9.250 3 9.350 7T 9.225 8 8.200 11 36.025 8
2017-01-07 2017 Flip'r Invitational Naperville Gymnastics Club XB Lvl: Bronze All 8.300 2 8.750 4 8.550 2 9.050 1 34.650 2
Get your scores on
a t-shirt, pin, or hoodie

www.lazysuits.com